Time;durP1;ratioP1;P1;durP2;ratioP2;P2;SDS_P1;SDS_P2;PMS_P1;PMS_P2;Temp;Humidity;BMP_temperature;BMP_pressure;BME280_temperature;BME280_humidity;BME280_pressure;Samples;Min_cycle;Max_cycle;Signal;HPM_P1;HPM_P2
2022/06/11 00:01:19;;;;;;;2.45;2.30;;;22.20;99.90;;;;;;5108902;28;20023;-74
2022/06/11 00:03:47;;;;;;;3.42;2.20;;;22.20;99.90;;;;;;5109100;28;20038;-74
2022/06/11 00:06:13;;;;;;;3.45;2.92;;;22.20;99.90;;;;;;5108681;28;20422;-73
2022/06/11 00:08:39;;;;;;;3.10;1.95;;;22.20;99.90;;;;;;5104269;28;20120;-73
2022/06/11 00:11:08;;;;;;;3.13;2.80;;;22.20;99.90;;;;;;5106874;28;20393;-73
2022/06/11 00:13:35;;;;;;;2.53;2.05;;;22.20;99.90;;;;;;5110495;28;20106;-73
2022/06/11 00:16:03;;;;;;;3.42;2.45;;;22.20;99.90;;;;;;5111331;28;20027;-72
2022/06/11 00:18:30;;;;;;;2.38;2.17;;;22.30;99.90;;;;;;5107976;28;20023;-72
2022/06/11 00:20:56;;;;;;;4.00;2.22;;;22.30;99.90;;;;;;5110080;28;20030;-72
2022/06/11 00:23:21;;;;;;;2.15;2.03;;;22.20;99.90;;;;;;5105953;28;20028;-73
2022/06/11 00:25:47;;;;;;;2.25;2.08;;;22.30;99.90;;;;;;5116140;28;20035;-74
2022/06/11 00:28:14;;;;;;;2.85;2.40;;;22.20;99.90;;;;;;5113117;28;20034;-74
2022/06/11 00:30:40;;;;;;;2.60;2.40;;;22.20;99.90;;;;;;5122042;28;20047;-74
2022/06/11 00:33:06;;;;;;;2.38;2.17;;;22.20;99.90;;;;;;5122265;28;20031;-73
2022/06/11 00:35:39;;;;;;;3.72;2.63;;;22.20;99.90;;;;;;5124010;28;20250;-74
2022/06/11 00:38:07;;;;;;;8.05;2.67;;;22.10;99.90;;;;;;5114335;28;20028;-74
2022/06/11 00:40:36;;;;;;;6.45;2.33;;;22.20;99.90;;;;;;5114946;28;20038;-73
2022/06/11 00:43:03;;;;;;;3.70;2.92;;;22.20;99.90;;;;;;5109854;28;20035;-73
2022/06/11 00:45:31;;;;;;;3.15;2.28;;;22.10;99.90;;;;;;5109882;28;20118;-73
2022/06/11 00:48:14;;;;;;;2.47;2.28;;;22.10;99.90;;;;;;5113198;28;20231;-73
2022/06/11 00:50:51;;;;;;;3.03;2.78;;;22.00;99.90;;;;;;5107832;28;20031;-74
2022/06/11 00:53:38;;;;;;;7.63;2.45;;;22.10;99.90;;;;;;5110092;28;20569;-74
2022/06/11 00:56:11;;;;;;;2.53;2.33;;;22.00;99.90;;;;;;5109302;28;20065;-74
2022/06/11 00:58:41;;;;;;;2.38;2.17;;;22.10;99.90;;;;;;5105496;28;20059;-74
2022/06/11 01:01:08;;;;;;;4.20;2.50;;;22.00;99.90;;;;;;5106279;28;20484;-74
2022/06/11 01:03:37;;;;;;;3.50;2.13;;;21.90;99.90;;;;;;5107923;28;20062;-74
2022/06/11 01:06:21;;;;;;;2.97;2.55;;;21.90;99.90;;;;;;5102849;28;20654;-72
2022/06/11 01:08:53;;;;;;;2.25;2.15;;;21.90;99.90;;;;;;5106049;28;20031;-73
2022/06/11 01:11:45;;;;;;;3.55;2.35;;;21.80;99.90;;;;;;5107400;28;20019;-73
2022/06/11 01:14:20;;;;;;;;;;;21.90;99.90;;;;;;5105048;28;20104;-73
2022/06/11 01:17:12;;;;;;;3.30;2.13;;;21.90;99.90;;;;;;5098932;28;20004;-73
2022/06/11 01:20:16;;;;;;;1.70;1.60;;;21.80;99.90;;;;;;5086434;28;20135;-74
2022/06/11 01:23:30;;;;;;;8.65;1.92;;;21.80;99.90;;;;;;5105421;28;20418;-73
2022/06/11 01:26:26;;;;;;;5.47;2.20;;;21.80;99.90;;;;;;5050230;28;20439;-74
2022/06/11 01:29:10;;;;;;;2.13;1.92;;;21.70;99.90;;;;;;5103668;28;20020;-73
2022/06/11 01:31:56;;;;;;;2.50;2.30;;;21.60;99.90;;;;;;5106680;28;20028;-74
2022/06/11 01:34:42;;;;;;;2.22;2.05;;;21.80;99.90;;;;;;5110050;28;20470;-74
2022/06/11 01:37:31;;;;;;;2.38;2.28;;;21.80;99.90;;;;;;5099447;28;20444;-73
2022/06/11 01:40:07;;;;;;;6.55;3.35;;;21.80;99.90;;;;;;5099630;28;20032;-75
2022/06/11 01:42:57;;;;;;;4.45;2.45;;;21.90;99.90;;;;;;5120032;27;20520;-73
2022/06/11 01:45:27;;;;;;;4.38;1.92;;;21.90;99.90;;;;;;5106534;28;20036;-73
2022/06/11 01:47:54;;;;;;;2.08;1.98;;;21.90;99.90;;;;;;5098199;28;20039;-73
2022/06/11 01:50:24;;;;;;;2.65;2.40;;;21.90;99.90;;;;;;5100702;28;20386;-73
2022/06/11 01:53:25;;;;;;;1.73;1.58;;;21.80;99.90;;;;;;5087992;28;20032;-74
2022/06/11 01:56:22;;;;;;;4.07;1.98;;;21.80;99.90;;;;;;5069149;28;20024;-73
2022/06/11 01:59:05;;;;;;;9.65;2.55;;;21.70;99.90;;;;;;5105000;28;20116;-74
2022/06/11 02:01:59;;;;;;;2.20;2.00;;;21.70;99.90;;;;;;5102162;28;20034;-73
2022/06/11 02:04:33;;;;;;;2.35;2.00;;;21.60;99.90;;;;;;5105989;28;20045;-74
2022/06/11 02:07:08;;;;;;;2.95;1.98;;;21.70;99.90;;;;;;5102506;28;20103;-74
2022/06/11 02:10:07;;;;;;;3.75;2.28;;;21.60;99.90;;;;;;5105706;28;20424;-72
2022/06/11 02:12:49;;;;;;;4.85;1.88;;;21.70;99.90;;;;;;5103359;28;20023;-74
2022/06/11 02:15:28;;;;;;;;;;;21.70;99.90;;;;;;5108762;28;20040;-74
2022/06/11 02:18:00;;;;;;;5.05;1.98;;;21.80;99.90;;;;;;5106438;28;20018;-73
2022/06/11 02:20:38;;;;;;;2.28;2.03;;;21.80;99.90;;;;;;5096931;28;20079;-73
2022/06/11 02:23:13;;;;;;;2.05;1.88;;;21.90;99.90;;;;;;5105225;28;20039;-73
2022/06/11 02:25:46;;;;;;;4.57;2.45;;;22.00;99.90;;;;;;5105240;28;20028;-75
2022/06/11 02:28:15;;;;;;;6.18;2.45;;;22.10;99.90;;;;;;5106368;28;20198;-74
2022/06/11 02:30:45;;;;;;;1.80;1.70;;;22.10;99.90;;;;;;5101250;28;20133;-73
2022/06/11 02:33:13;;;;;;;5.75;2.08;;;22.10;99.90;;;;;;5106964;28;20035;-73
2022/06/11 02:35:55;;;;;;;2.40;2.20;;;22.00;99.90;;;;;;5109014;28;20485;-72
2022/06/11 02:38:23;;;;;;;2.05;1.95;;;22.00;99.90;;;;;;5106702;28;20032;-73
2022/06/11 02:40:55;;;;;;;2.50;1.90;;;22.00;99.90;;;;;;5097530;28;20043;-74
2022/06/11 02:43:21;;;;;;;2.17;1.90;;;22.00;99.90;;;;;;5106223;28;20152;-73
2022/06/11 02:45:48;;;;;;;2.25;1.70;;;22.00;99.90;;;;;;5108008;28;20039;-73
2022/06/11 02:48:14;;;;;;;2.78;2.53;;;22.00;99.90;;;;;;5107867;28;20499;-73
2022/06/11 02:50:42;;;;;;;1.83;1.70;;;22.00;99.90;;;;;;5100502;28;20116;-73
2022/06/11 02:53:10;;;;;;;1.65;1.55;;;21.90;99.90;;;;;;5104193;28;20393;-73
2022/06/11 02:55:38;;;;;;;2.33;2.22;;;21.90;99.90;;;;;;5106997;28;20038;-74
2022/06/11 02:58:06;;;;;;;2.17;2.00;;;21.90;99.90;;;;;;5105521;28;20111;-73
2022/06/11 03:00:37;;;;;;;2.08;1.88;;;22.00;99.90;;;;;;5099821;28;20019;-73
2022/06/11 03:03:03;;;;;;;7.45;2.20;;;22.00;99.90;;;;;;5107925;28;20480;-74
2022/06/11 03:05:31;;;;;;;2.55;2.35;;;22.00;99.90;;;;;;5108842;28;20059;-73
2022/06/11 03:07:58;;;;;;;1.70;1.60;;;22.00;99.90;;;;;;5103067;28;20027;-73
2022/06/11 03:10:25;;;;;;;3.75;2.17;;;22.00;99.90;;;;;;5100067;28;20401;-74
2022/06/11 03:12:51;;;;;;;1.55;1.45;;;22.00;99.90;;;;;;5105953;28;20035;-72
2022/06/11 03:15:19;;;;;;;1.83;1.70;;;21.90;99.90;;;;;;5102895;28;20034;-72
2022/06/11 03:17:47;;;;;;;2.80;2.30;;;22.00;99.90;;;;;;5102296;28;20054;-72
2022/06/11 03:20:15;;;;;;;2.30;2.10;;;22.00;99.90;;;;;;5105244;28;20012;-72
2022/06/11 03:22:41;;;;;;;3.03;1.95;;;22.00;99.90;;;;;;5107612;28;20528;-72
2022/06/11 03:25:08;;;;;;;2.28;2.17;;;21.90;99.90;;;;;;5106231;28;20034;-73
2022/06/11 03:27:35;;;;;;;3.95;2.22;;;21.90;99.90;;;;;;5106420;28;20081;-73
2022/06/11 03:30:01;;;;;;;1.80;1.70;;;22.00;99.90;;;;;;5103363;28;20038;-73
2022/06/11 03:32:28;;;;;;;3.05;1.67;;;22.00;99.90;;;;;;5106772;28;20027;-73
2022/06/11 03:34:54;;;;;;;2.20;2.10;;;22.10;99.90;;;;;;5107482;28;20023;-73
2022/06/11 03:37:20;;;;;;;3.40;2.15;;;22.00;99.90;;;;;;5105541;28;20031;-73
2022/06/11 03:39:46;;;;;;;2.08;1.98;;;22.00;99.90;;;;;;5106461;28;20072;-73
2022/06/11 03:42:13;;;;;;;2.03;1.75;;;22.10;99.90;;;;;;5108558;28;20024;-73
2022/06/11 03:44:39;;;;;;;2.72;1.80;;;22.00;99.90;;;;;;5112072;28;20047;-73
2022/06/11 03:47:05;;;;;;;1.60;1.50;;;22.10;99.90;;;;;;5104525;28;20050;-73
2022/06/11 03:49:31;;;;;;;2.45;2.15;;;22.00;99.90;;;;;;5100590;28;20032;-74
2022/06/11 03:51:57;;;;;;;2.10;1.95;;;21.90;99.90;;;;;;5110467;28;20397;-74
2022/06/11 03:54:23;;;;;;;2.67;1.83;;;21.90;99.90;;;;;;5105327;28;20027;-73
2022/06/11 03:56:51;;;;;;;2.35;1.88;;;21.90;99.90;;;;;;5109634;28;20047;-73
2022/06/11 03:59:17;;;;;;;3.78;2.15;;;22.00;99.90;;;;;;5108048;28;20043;-73
2022/06/11 04:01:44;;;;;;;1.90;1.80;;;21.90;99.90;;;;;;5102817;28;20015;-72
2022/06/11 04:04:13;;;;;;;2.10;1.88;;;22.00;99.90;;;;;;5106258;28;20073;-73
2022/06/11 04:06:49;;;;;;;3.47;2.03;;;22.00;99.90;;;;;;5102640;28;20036;-73
2022/06/11 04:09:19;;;;;;;2.72;2.10;;;22.00;99.90;;;;;;5106519;28;20075;-73
2022/06/11 04:11:46;;;;;;;4.78;2.25;;;22.00;99.90;;;;;;5109494;28;20114;-73
2022/06/11 04:14:12;;;;;;;4.82;2.28;;;22.00;99.90;;;;;;5110434;28;20031;-73
2022/06/11 04:17:03;;;;;;;2.50;2.00;;;22.10;99.90;;;;;;5103094;28;20032;-73
2022/06/11 04:19:33;;;;;;;3.15;2.72;;;22.10;99.90;;;;;;5108769;28;20485;-72
2022/06/11 04:22:00;;;;;;;4.32;2.67;;;22.10;99.90;;;;;;5109922;28;20111;-72
2022/06/11 04:24:29;;;;;;;2.55;2.13;;;22.00;99.90;;;;;;5122725;27;20032;-72
2022/06/11 04:26:57;;;;;;;4.50;2.33;;;22.10;99.90;;;;;;5105364;28;20023;-73
2022/06/11 04:29:26;;;;;;;4.45;2.35;;;22.00;99.90;;;;;;5096350;28;20040;-72
2022/06/11 04:31:54;;;;;;;2.63;2.42;;;22.10;99.90;;;;;;5103111;28;20035;-73
2022/06/11 04:34:21;;;;;;;2.33;2.10;;;22.10;99.90;;;;;;5110833;28;20023;-73
2022/06/11 04:36:48;;;;;;;3.53;1.90;;;22.10;99.90;;;;;;5108625;28;20035;-72
2022/06/11 04:39:17;;;;;;;2.30;2.10;;;22.10;99.90;;;;;;5103170;28;20073;-73
2022/06/11 04:41:43;;;;;;;5.57;1.85;;;22.20;99.90;;;;;;5104240;28;20706;-74
2022/06/11 04:44:09;;;;;;;3.55;1.67;;;22.20;99.90;;;;;;5108086;28;20027;-73
2022/06/11 04:46:36;;;;;;;1.98;1.88;;;22.40;99.90;;;;;;5110046;28;20407;-73
2022/06/11 04:49:03;;;;;;;5.30;2.67;;;22.40;99.90;;;;;;5103342;28;20024;-72
2022/06/11 04:51:29;;;;;;;5.82;2.25;;;22.50;99.90;;;;;;5102768;28;20034;-73
2022/06/11 04:53:55;;;;;;;2.22;2.00;;;22.50;99.90;;;;;;5108818;28;20486;-73
2022/06/11 04:56:24;;;;;;;2.13;1.95;;;22.60;99.90;;;;;;5102202;28;20035;-74
2022/06/11 04:58:51;;;;;;;4.72;2.22;;;22.70;99.90;;;;;;5107172;28;20031;-73
2022/06/11 05:01:18;;;;;;;2.13;1.95;;;22.70;99.90;;;;;;5103320;28;20233;-73
2022/06/11 05:03:43;;;;;;;3.03;2.20;;;22.90;99.90;;;;;;5109786;28;20151;-73
2022/06/11 05:06:12;;;;;;;3.03;1.95;;;22.90;99.90;;;;;;5108117;28;20049;-74
2022/06/11 05:08:38;;;;;;;3.83;2.60;;;23.00;99.90;;;;;;5106493;28;20489;-72
2022/06/11 05:11:05;;;;;;;3.70;1.70;;;22.90;99.90;;;;;;5101617;28;20034;-72
2022/06/11 05:13:31;;;;;;;6.22;2.42;;;23.00;99.90;;;;;;5106011;28;20467;-72
2022/06/11 05:15:58;;;;;;;4.97;2.53;;;22.90;99.90;;;;;;5101542;28;20020;-72
2022/06/11 05:18:25;;;;;;;4.00;1.98;;;23.00;99.90;;;;;;5106504;28;20400;-72
2022/06/11 05:20:52;;;;;;;5.40;2.90;;;23.00;99.90;;;;;;5106712;28;20022;-72
2022/06/11 05:23:18;;;;;;;2.53;2.03;;;23.10;99.90;;;;;;5109134;28;20110;-72
2022/06/11 05:25:46;;;;;;;1.50;1.40;;;23.10;99.90;;;;;;5107846;28;20031;-72
2022/06/11 05:28:31;;;;;;;6.00;2.35;;;23.10;99.90;;;;;;5104659;28;20076;-72
2022/06/11 05:30:58;;;;;;;3.75;1.85;;;23.10;99.90;;;;;;5102158;28;20102;-72
2022/06/11 05:33:24;;;;;;;2.28;2.08;;;23.20;99.90;;;;;;5107056;28;20050;-72
2022/06/11 05:35:50;;;;;;;7.53;1.77;;;23.30;99.90;;;;;;5106810;28;20020;-74
2022/06/11 05:38:20;;;;;;;4.63;2.53;;;23.20;99.90;;;;;;5107526;28;20157;-72
2022/06/11 05:40:48;;;;;;;3.40;2.03;;;23.30;99.90;;;;;;5107963;28;20051;-74
2022/06/11 05:43:15;;;;;;;2.70;2.40;;;23.30;99.90;;;;;;5106304;28;20054;-71
2022/06/11 05:45:56;;;;;;;2.63;2.03;;;23.40;99.90;;;;;;5100989;28;20030;-73
2022/06/11 05:48:25;;;;;;;3.95;1.83;;;23.40;99.90;;;;;;5105533;28;20401;-72
2022/06/11 05:50:54;;;;;;;2.42;2.22;;;23.50;99.90;;;;;;5107599;28;20028;-72
2022/06/11 05:53:23;;;;;;;4.65;2.30;;;23.50;99.90;;;;;;5105209;28;20497;-72
2022/06/11 05:55:50;;;;;;;1.88;1.77;;;23.60;99.90;;;;;;5107162;28;20015;-73
2022/06/11 05:58:24;;;;;;;3.70;2.22;;;23.60;99.90;;;;;;5090021;28;20477;-72
2022/06/11 06:00:51;;;;;;;5.13;2.15;;;23.40;99.90;;;;;;5096091;28;20030;-72
2022/06/11 06:03:16;;;;;;;4.00;2.75;;;23.50;99.90;;;;;;5102586;28;20038;-72
2022/06/11 06:05:42;;;;;;;3.20;2.33;;;23.50;99.90;;;;;;5107716;28;20409;-72
2022/06/11 06:08:08;;;;;;;1.95;1.85;;;23.50;99.90;;;;;;5106161;28;20016;-73
2022/06/11 06:10:34;;;;;;;3.55;1.70;;;23.50;99.90;;;;;;5108028;28;20543;-72
2022/06/11 06:13:45;;;;;;;3.30;2.05;;;23.70;99.90;;;;;;5102687;28;20046;-73
2022/06/11 06:15:51;;;;;;;4.45;2.38;;;23.70;99.90;;;;;;5106286;28;20028;-73
2022/06/11 06:18:17;;;;;;;3.97;1.67;;;23.80;99.90;;;;;;5103009;28;20033;-74
2022/06/11 06:20:42;;;;;;;2.78;2.13;;;24.00;99.90;;;;;;5103816;28;20159;-73
2022/06/11 06:23:08;;;;;;;7.20;2.25;;;24.00;99.90;;;;;;5106599;28;20477;-72
2022/06/11 06:25:34;;;;;;;5.07;2.13;;;23.90;99.90;;;;;;5103757;28;20358;-68
2022/06/11 06:27:59;;;;;;;2.50;2.08;;;23.90;99.90;;;;;;5104214;28;20027;-69
2022/06/11 06:30:25;;;;;;;2.13;2.03;;;24.00;99.90;;;;;;5101958;28;20055;-67
2022/06/11 06:32:51;;;;;;;3.08;2.00;;;24.00;99.90;;;;;;5103636;28;20036;-69
2022/06/11 06:35:18;;;;;;;2.10;2.00;;;24.00;99.90;;;;;;5109250;28;20016;-68
2022/06/11 06:37:43;;;;;;;2.50;2.30;;;24.10;99.90;;;;;;5102815;28;20026;-68
2022/06/11 06:40:09;;;;;;;7.18;2.40;;;24.00;99.90;;;;;;5106834;28;20023;-68
2022/06/11 06:42:35;;;;;;;2.13;1.92;;;24.10;99.90;;;;;;5107935;28;20019;-68
2022/06/11 06:45:01;;;;;;;6.18;2.13;;;24.10;99.90;;;;;;5105851;28;20042;-68
2022/06/11 06:47:27;;;;;;;4.55;2.20;;;24.20;99.90;;;;;;5103930;28;20035;-69
2022/06/11 06:49:54;;;;;;;6.32;2.25;;;24.20;99.90;;;;;;5102555;28;20422;-69
2022/06/11 06:52:21;;;;;;;5.03;1.98;;;24.20;99.90;;;;;;5111289;28;20050;-68
2022/06/11 06:54:47;;;;;;;1.85;1.75;;;24.20;99.90;;;;;;5106988;28;20031;-69
2022/06/11 06:57:12;;;;;;;3.67;1.92;;;24.30;99.90;;;;;;5099463;28;20017;-68
2022/06/11 06:59:38;;;;;;;19.63;2.35;;;24.40;99.90;;;;;;5103852;28;20016;-68
2022/06/11 07:02:04;;;;;;;1.92;1.83;;;24.20;99.90;;;;;;5122375;27;20020;-68
2022/06/11 07:04:30;;;;;;;3.92;2.33;;;24.20;99.90;;;;;;5104246;28;20094;-68
2022/06/11 07:06:56;;;;;;;3.67;2.10;;;24.30;99.90;;;;;;5105683;28;20308;-67
2022/06/11 07:09:22;;;;;;;2.90;2.03;;;24.40;99.90;;;;;;5102282;28;20028;-68
2022/06/11 07:11:48;;;;;;;3.63;2.22;;;24.40;99.90;;;;;;5104176;28;20134;-68
2022/06/11 07:14:13;;;;;;;4.63;2.20;;;24.40;99.90;;;;;;5106006;28;20110;-67
2022/06/11 07:16:44;;;;;;;2.42;2.08;;;24.40;99.90;;;;;;5108296;28;20107;-67
2022/06/11 07:19:15;;;;;;;2.25;1.95;;;24.40;99.90;;;;;;5111458;28;20170;-68
2022/06/11 07:21:46;;;;;;;2.45;2.20;;;24.40;99.90;;;;;;5112336;28;20197;-68
2022/06/11 07:24:17;;;;;;;2.50;1.77;;;24.40;99.90;;;;;;5112596;28;20065;-68
2022/06/11 07:26:48;;;;;;;6.97;3.13;;;24.20;99.90;;;;;;5108457;28;20028;-67
2022/06/11 07:29:38;;;;;;;5.73;1.73;;;24.30;99.90;;;;;;5100435;27;20063;-68
2022/06/11 07:32:17;;;;;;;2.75;2.13;;;24.30;99.90;;;;;;5106624;28;20273;-68
2022/06/11 07:34:43;;;;;;;3.33;1.67;;;24.60;99.90;;;;;;5111308;28;20024;-67
2022/06/11 07:37:10;;;;;;;3.17;1.88;;;24.80;99.90;;;;;;5111885;28;20028;-69
2022/06/11 07:39:36;;;;;;;2.47;1.90;;;25.00;99.90;;;;;;5111766;28;20023;-69
2022/06/11 07:42:02;;;;;;;1.80;1.70;;;25.00;99.90;;;;;;5101721;28;20024;-69
2022/06/11 07:44:28;;;;;;;5.85;1.80;;;25.10;99.90;;;;;;5107224;28;20533;-68
2022/06/11 07:46:54;;;;;;;3.55;2.30;;;25.20;99.90;;;;;;5107021;28;20126;-68
2022/06/11 07:49:20;;;;;;;3.97;2.10;;;25.30;99.90;;;;;;5108564;28;20119;-69
2022/06/11 07:51:46;;;;;;;3.00;1.90;;;25.50;99.90;;;;;;5109739;27;20508;-68
2022/06/11 07:54:11;;;;;;;6.47;2.30;;;25.60;99.90;;;;;;5110575;28;20413;-68
2022/06/11 07:56:38;;;;;;;2.45;2.25;;;25.70;99.90;;;;;;5097217;28;20039;-68
2022/06/11 07:59:05;;;;;;;3.55;1.88;;;26.00;99.90;;;;;;5105651;28;20028;-68
2022/06/11 08:01:31;;;;;;;4.65;2.28;;;26.00;99.90;;;;;;5108639;28;20015;-69
2022/06/11 08:03:57;;;;;;;2.30;2.10;;;25.90;99.90;;;;;;5110326;28;20034;-70
2022/06/11 08:06:24;;;;;;;2.67;2.28;;;25.90;99.90;;;;;;5109170;28;20029;-69
2022/06/11 08:08:50;;;;;;;2.00;1.80;;;26.10;99.90;;;;;;5111249;28;20457;-70
2022/06/11 08:11:17;;;;;;;2.75;1.70;;;26.20;99.90;;;;;;5108507;28;20026;-70
2022/06/11 08:13:43;;;;;;;2.67;2.08;;;26.10;99.90;;;;;;5109931;28;20027;-69
2022/06/11 08:16:10;;;;;;;2.15;1.88;;;25.80;99.90;;;;;;5109063;28;20076;-70
2022/06/11 08:18:37;;;;;;;2.08;1.80;;;25.90;99.90;;;;;;5104538;28;20019;-69
2022/06/11 08:21:03;;;;;;;2.58;1.50;;;25.90;99.90;;;;;;5108163;28;20034;-69
2022/06/11 08:23:29;;;;;;;2.63;2.40;;;25.80;99.90;;;;;;5107188;28;20496;-68
2022/06/11 08:25:56;;;;;;;9.88;3.60;;;25.90;99.90;;;;;;5110049;28;20059;-68
2022/06/11 08:28:22;;;;;;;2.00;1.83;;;26.10;99.90;;;;;;5106924;28;20032;-68
2022/06/11 08:30:49;;;;;;;2.38;1.88;;;26.30;99.90;;;;;;5107391;28;20326;-69
2022/06/11 08:33:16;;;;;;;4.95;2.50;;;26.30;99.90;;;;;;5107326;27;20024;-69
2022/06/11 08:35:42;;;;;;;2.10;1.98;;;26.30;99.90;;;;;;5104827;28;20030;-69
2022/06/11 08:38:08;;;;;;;3.80;2.20;;;26.20;99.90;;;;;;5095800;27;20032;-69
2022/06/11 08:40:41;;;;;;;2.40;2.13;;;26.10;99.90;;;;;;5099293;28;20065;-69
2022/06/11 08:43:19;;;;;;;2.25;1.35;;;26.10;99.90;;;;;;5103325;28;20416;-69
2022/06/11 08:45:53;;;;;;;1.60;1.50;;;26.10;99.90;;;;;;5109009;28;20497;-69
2022/06/11 08:48:27;;;;;;;3.60;1.75;;;26.30;99.90;;;;;;5108171;28;20031;-69
2022/06/11 08:51:23;;;;;;;1.55;1.45;;;26.50;99.90;;;;;;5126899;27;20110;-69
2022/06/11 08:53:52;;;;;;;5.53;2.05;;;26.50;99.90;;;;;;5109205;28;20032;-69
2022/06/11 08:56:24;;;;;;;4.10;2.30;;;26.40;99.90;;;;;;5107930;28;20027;-68
2022/06/11 08:59:11;;;;;;;4.28;2.30;;;26.40;99.90;;;;;;5109728;28;20031;-68
2022/06/11 09:01:51;;;;;;;2.40;1.80;;;26.50;99.90;;;;;;5111016;28;20406;-68
2022/06/11 09:04:38;;;;;;;4.25;1.80;;;26.70;99.90;;;;;;5107681;28;20180;-68
2022/06/11 09:07:34;;;;;;;3.22;1.85;;;26.60;99.90;;;;;;5106288;28;20047;-68
2022/06/11 09:10:03;;;;;;;3.60;2.10;;;26.60;99.90;;;;;;5106942;28;20023;-70
2022/06/11 09:12:41;;;;;;;3.60;1.80;;;26.70;99.90;;;;;;5110770;28;20139;-68
2022/06/11 09:15:26;;;;;;;4.18;1.60;;;26.80;99.90;;;;;;5108823;28;20066;-68
2022/06/11 09:17:55;;;;;;;5.32;1.55;;;26.90;99.90;;;;;;5105097;28;20024;-69
2022/06/11 09:20:42;;;;;;;4.32;1.75;;;26.90;99.90;;;;;;5109908;28;20019;-69
2022/06/11 09:23:27;;;;;;;1.80;1.70;;;26.70;99.90;;;;;;5110592;28;20038;-68
2022/06/11 09:26:28;;;;;;;2.03;1.52;;;26.80;99.90;;;;;;5110575;28;20097;-68
2022/06/11 09:29:12;;;;;;;3.50;1.53;;;26.70;99.90;;;;;;5109608;28;20024;-69
2022/06/11 09:31:51;;;;;;;2.97;1.90;;;26.70;99.90;;;;;;5110418;28;20573;-69
2022/06/11 09:34:53;;;;;;;2.45;1.85;;;26.70;99.90;;;;;;5110384;28;20049;-69
2022/06/11 09:37:28;;;;;;;2.90;2.70;;;26.80;99.90;;;;;;5097157;28;20035;-68
2022/06/11 09:40:16;;;;;;;2.22;1.45;;;26.90;99.90;;;;;;5090261;28;20032;-70
2022/06/11 09:42:46;;;;;;;1.88;1.77;;;27.00;99.90;;;;;;5091334;28;20058;-68
2022/06/11 09:45:12;;;;;;;2.10;1.90;;;27.00;99.90;;;;;;5096519;28;20147;-68
2022/06/11 09:47:52;;;;;;;1.70;1.25;;;27.10;99.90;;;;;;5103720;28;20073;-69
2022/06/11 09:50:45;;;;;;;2.45;2.03;;;27.10;99.90;;;;;;5107955;28;20036;-69
2022/06/11 09:53:29;;;;;;;2.60;2.17;;;27.10;99.90;;;;;;5109739;28;20027;-70
2022/06/11 09:56:01;;;;;;;2.58;1.75;;;27.10;99.90;;;;;;5111640;28;20023;-69
2022/06/11 09:58:46;;;;;;;2.38;1.63;;;27.10;99.90;;;;;;5107037;28;20591;-69
2022/06/11 10:01:17;;;;;;;8.07;2.65;;;27.10;99.90;;;;;;5108987;28;20023;-69
2022/06/11 10:04:06;;;;;;;3.00;1.98;;;27.20;99.90;;;;;;5110124;28;20028;-69
2022/06/11 10:06:52;;;;;;;1.75;1.40;;;27.50;99.90;;;;;;5107930;28;20056;-69
2022/06/11 10:09:26;;;;;;;3.92;1.80;;;27.50;99.90;;;;;;5108392;28;20030;-69
2022/06/11 10:11:58;;;;;;;2.13;1.77;;;27.50;99.90;;;;;;5110954;28;20042;-71
2022/06/11 10:14:33;;;;;;;3.30;2.28;;;27.60;99.90;;;;;;5109431;28;20428;-70
2022/06/11 10:17:04;;;;;;;6.40;1.67;;;27.40;99.90;;;;;;5111436;28;20039;-69
2022/06/11 10:19:49;;;;;;;2.17;2.03;;;27.50;99.90;;;;;;5110192;28;20038;-68
2022/06/11 10:22:27;;;;;;;3.63;1.75;;;27.70;99.90;;;;;;5109401;28;20026;-69
2022/06/11 10:25:19;;;;;;;2.15;1.95;;;27.80;99.90;;;;;;5111452;28;20027;-70
2022/06/11 10:28:00;;;;;;;6.10;2.03;;;28.00;99.90;;;;;;5109548;28;20032;-70
2022/06/11 10:30:48;;;;;;;2.85;2.60;;;28.00;99.90;;;;;;5106827;28;20038;-70
2022/06/11 10:33:24;;;;;;;2.65;2.08;;;27.90;99.90;;;;;;5109472;28;20435;-68
2022/06/11 10:36:06;;;;;;;3.40;1.63;;;27.80;99.90;;;;;;5108014;28;20662;-69
2022/06/11 10:38:53;;;;;;;1.65;1.52;;;27.80;99.90;;;;;;5107142;28;20024;-68
2022/06/11 10:41:36;;;;;;;2.33;2.10;;;27.90;99.90;;;;;;5100872;28;20024;-69
2022/06/11 10:44:35;;;;;;;2.17;1.63;;;27.80;99.90;;;;;;5103603;28;20034;-70
2022/06/11 10:47:02;;;;;;;1.77;1.55;;;27.90;99.90;;;;;;5099671;28;20031;-68
2022/06/11 10:49:28;;;;;;;5.35;2.03;;;27.90;99.90;;;;;;5101481;28;20033;-69
2022/06/11 10:52:03;;;;;;;2.42;2.22;;;27.80;99.90;;;;;;5113215;28;20072;-69
2022/06/11 10:54:29;;;;;;;2.53;2.20;;;27.80;99.90;;;;;;5112681;28;20045;-69
2022/06/11 10:57:05;;;;;;;3.00;1.88;;;28.00;99.90;;;;;;5111706;28;20108;-70
2022/06/11 10:59:57;;;;;;;1.70;1.60;;;28.20;99.90;;;;;;5110580;28;20023;-69
2022/06/11 11:02:45;;;;;;;3.30;2.97;;;28.30;99.90;;;;;;5088752;28;20077;-70
2022/06/11 11:05:14;;;;;;;2.90;2.70;;;28.10;99.90;;;;;;5109890;28;20108;-70
2022/06/11 11:07:50;;;;;;;3.10;2.35;;;27.80;99.90;;;;;;5114397;28;20068;-70
2022/06/11 11:10:36;;;;;;;4.25;2.38;;;27.40;99.90;;;;;;5111138;28;20023;-70
2022/06/11 11:13:25;;;;;;;1.98;1.73;;;27.30;99.90;;;;;;5105540;28;20143;-70
2022/06/11 11:16:07;;;;;;;1.77;1.67;;;27.80;99.90;;;;;;5101785;28;20027;-68
2022/06/11 11:18:40;;;;;;;3.90;2.15;;;28.30;99.90;;;;;;5113173;28;20151;-70
2022/06/11 11:21:33;;;;;;;5.72;2.63;;;28.50;99.90;;;;;;5109910;28;20082;-69
2022/06/11 11:24:09;;;;;;;1.90;1.80;;;28.60;99.90;;;;;;5112576;28;20346;-69
2022/06/11 11:26:42;;;;;;;7.82;2.40;;;28.80;99.90;;;;;;5108449;28;20119;-68
2022/06/11 11:29:26;;;;;;;3.95;2.60;;;28.90;99.90;;;;;;5092072;28;20064;-69
2022/06/11 11:32:06;;;;;;;4.25;2.17;;;28.90;99.90;;;;;;5092403;28;20020;-69
2022/06/11 11:34:46;;;;;;;2.88;1.98;;;28.80;99.90;;;;;;5092380;28;20063;-70
2022/06/11 11:37:12;;;;;;;1.83;1.73;;;28.70;99.90;;;;;;5092352;28;20559;-70
2022/06/11 11:39:47;;;;;;;4.95;3.00;;;28.80;99.90;;;;;;5098068;28;20044;-70
2022/06/11 11:42:18;;;;;;;4.50;2.75;;;28.70;99.90;;;;;;5109699;28;20465;-70
2022/06/11 11:44:49;;;;;;;3.22;2.15;;;28.30;99.90;;;;;;5103078;28;20038;-70
2022/06/11 11:47:29;;;;;;;2.63;2.42;;;28.20;99.90;;;;;;5109426;28;20439;-70
2022/06/11 11:50:03;;;;;;;3.45;2.05;;;28.00;99.90;;;;;;5107650;28;20024;-69
2022/06/11 11:52:29;;;;;;;2.65;2.20;;;27.70;99.90;;;;;;5105244;28;20485;-69
2022/06/11 11:55:11;;;;;;;2.20;2.05;;;27.60;99.90;;;;;;5110361;28;20027;-69
2022/06/11 11:57:38;;;;;;;7.22;2.28;;;27.70;99.90;;;;;;5110224;28;20045;-69
2022/06/11 12:00:07;;;;;;;2.22;2.05;;;27.80;99.90;;;;;;5112844;28;20342;-69
2022/06/11 12:02:46;;;;;;;2.63;2.20;;;28.00;99.90;;;;;;5113015;28;20055;-70
2022/06/11 12:05:21;;;;;;;5.30;2.35;;;28.00;99.90;;;;;;5110466;28;20035;-68
2022/06/11 12:07:48;;;;;;;3.17;2.22;;;28.00;99.90;;;;;;5117092;28;20042;-68
2022/06/11 12:10:44;;;;;;;5.85;2.30;;;28.10;99.90;;;;;;5110492;28;20024;-68
2022/06/11 12:13:42;;;;;;;3.22;2.88;;;28.20;99.90;;;;;;5112403;28;20057;-69
2022/06/11 12:16:37;;;;;;;4.00;2.90;;;28.20;99.90;;;;;;5117404;28;20546;-69
2022/06/11 12:19:28;;;;;;;5.15;4.55;;;28.20;99.90;;;;;;5111552;28;20447;-70
2022/06/11 12:22:09;;;;;;;3.92;2.38;;;28.20;99.90;;;;;;5112324;28;20412;-68
2022/06/11 12:24:43;;;;;;;3.70;2.70;;;28.20;99.90;;;;;;5110150;28;20059;-69
2022/06/11 12:27:35;;;;;;;2.40;2.20;;;28.30;99.90;;;;;;5111875;28;20019;-69
2022/06/11 12:30:05;;;;;;;4.28;3.35;;;28.10;99.90;;;;;;5106009;28;20533;-68
2022/06/11 12:32:33;;;;;;;3.33;2.70;;;28.10;99.90;;;;;;5111371;28;20043;-70
2022/06/11 12:35:01;;;;;;;2.47;2.13;;;28.20;99.90;;;;;;5105285;28;20063;-69
2022/06/11 12:37:37;;;;;;;5.50;2.20;;;28.00;99.90;;;;;;5102255;28;20035;-68
2022/06/11 12:40:21;;;;;;;7.82;4.57;;;28.00;99.90;;;;;;5100625;28;20050;-72
2022/06/11 12:43:19;;;;;;;5.43;3.95;;;28.40;99.90;;;;;;5103315;28;20043;-70
2022/06/11 12:46:17;;;;;;;3.58;2.40;;;28.70;99.90;;;;;;5100396;28;20081;-69
2022/06/11 12:49:26;;;;;;;4.82;2.40;;;28.70;99.90;;;;;;5097824;28;20493;-67
2022/06/11 12:52:20;;;;;;;2.75;2.55;;;28.70;99.90;;;;;;5062388;28;20050;-67
2022/06/11 12:55:05;;;;;;;4.97;2.38;;;28.60;99.90;;;;;;5095722;28;20160;-67
2022/06/11 12:57:49;;;;;;;4.13;2.25;;;28.50;99.90;;;;;;5095784;28;20044;-67
2022/06/11 13:00:47;;;;;;;9.25;3.13;;;28.30;99.90;;;;;;5098112;28;20069;-68
2022/06/11 13:03:52;;;;;;;8.75;2.50;;;28.60;99.90;;;;;;5094466;28;20027;-69
2022/06/11 13:06:58;;;;;;;2.30;2.10;;;28.60;99.90;;;;;;5097939;28;20047;-70
2022/06/11 13:09:34;;;;;;;5.03;2.33;;;28.00;99.90;;;;;;5108006;28;20546;-68
2022/06/11 13:12:50;;;;;;;3.03;1.80;;;27.80;99.90;;;;;;5107889;28;20027;-71
2022/06/11 13:15:28;;;;;;;7.40;2.85;;;27.70;99.90;;;;;;5107141;28;20111;-72
2022/06/11 13:17:58;;;;;;;2.15;1.95;;;27.40;99.90;;;;;;5111358;28;20091;-68
2022/06/11 13:20:42;;;;;;;3.88;2.30;;;27.40;99.90;;;;;;5106161;28;20488;-68
2022/06/11 13:23:24;;;;;;;10.55;2.22;;;27.40;99.90;;;;;;5106865;28;20035;-70